Time;durP1;ratioP1;P1;durP2;ratioP2;P2;SDS_P1;SDS_P2;PMS_P1;PMS_P2;Temp;Humidity;BMP_temperature;BMP_pressure;BME280_temperature;BME280_humidity;BME280_pressure;Samples;Min_cycle;Max_cycle;Signal;HPM_P1;HPM_P2
2023/10/27 00:02:50;;;;;;;11.07;6.78;;;;;;;;;;6082514;23;20158;-93
2023/10/27 00:05:55;;;;;;;16.73;7.05;;;;;;;;;;6081844;23;20166;-91
2023/10/27 00:09:02;;;;;;;12.60;6.80;;;;;;;;;;6098905;23;20238;-90
2023/10/27 00:12:07;;;;;;;12.05;7.25;;;;;;;;;;6083166;23;20170;-93
2023/10/27 00:15:12;;;;;;;13.52;7.30;;;;;;;;;;6081453;23;20167;-91
2023/10/27 00:18:17;;;;;;;13.88;7.32;;;;;;;;;;6084264;23;20235;-90
2023/10/27 00:21:22;;;;;;;12.85;7.20;;;;;;;;;;6084904;23;20171;-90
2023/10/27 00:24:29;;;;;;;16.08;7.43;;;;;;;;;;6082382;23;20229;-91
2023/10/27 00:27:34;;;;;;;15.93;7.65;;;;;;;;;;6082113;23;20682;-91
2023/10/27 00:30:40;;;;;;;14.45;7.82;;;;;;;;;;6082205;23;20276;-91
2023/10/27 00:33:45;;;;;;;12.35;7.90;;;;;;;;;;6098088;23;20228;-93
2023/10/27 00:36:50;;;;;;;15.35;7.40;;;;;;;;;;6079996;23;20182;-91
2023/10/27 00:39:56;;;;;;;19.30;7.95;;;;;;;;;;6080998;23;20174;-91
2023/10/27 00:43:03;;;;;;;16.00;7.57;;;;;;;;;;6082958;23;20211;-91
2023/10/27 00:46:08;;;;;;;16.63;7.90;;;;;;;;;;6080962;23;20158;-90
2023/10/27 00:49:14;;;;;;;12.75;7.20;;;;;;;;;;6079932;23;20272;-93
2023/10/27 00:52:21;;;;;;;15.35;8.07;;;;;;;;;;6096326;23;20174;-92
2023/10/27 00:55:27;;;;;;;19.05;9.35;;;;;;;;;;6081338;23;20162;-90
2023/10/27 00:58:33;;;;;;;19.27;8.98;;;;;;;;;;6080201;23;20630;-91
2023/10/27 01:01:38;;;;;;;23.33;9.25;;;;;;;;;;6081373;23;20146;-92
2023/10/27 01:04:43;;;;;;;17.80;8.25;;;;;;;;;;6083007;23;20191;-92
2023/10/27 01:07:48;;;;;;;19.60;8.40;;;;;;;;;;6081925;23;20234;-94
2023/10/27 01:10:55;;;;;;;20.42;8.68;;;;;;;;;;6080467;23;20306;-90
2023/10/27 01:14:01;;;;;;;18.15;8.73;;;;;;;;;;6081828;23;20150;-90
2023/10/27 01:17:07;;;;;;;16.23;8.05;;;;;;;;;;6082027;23;20685;-92
2023/10/27 01:20:12;;;;;;;17.90;8.80;;;;;;;;;;6082637;23;20297;-92
2023/10/27 01:23:19;;;;;;;16.92;8.98;;;;;;;;;;6080905;23;20175;-92
2023/10/27 01:26:24;;;;;;;13.65;7.65;;;;;;;;;;6080441;23;20174;-92
2023/10/27 01:29:30;;;;;;;16.83;8.45;;;;;;;;;;6080674;23;20182;-91
2023/10/27 01:32:35;;;;;;;14.30;8.77;;;;;;;;;;6081155;23;20166;-93
2023/10/27 01:35:40;;;;;;;14.38;8.55;;;;;;;;;;6082018;23;20191;-91
2023/10/27 01:38:47;;;;;;;15.90;7.85;;;;;;;;;;6080895;23;20622;-93
2023/10/27 01:41:53;;;;;;;15.20;8.52;;;;;;;;;;6081011;23;20175;-91
2023/10/27 01:44:59;;;;;;;16.67;8.43;;;;;;;;;;6081111;23;20169;-93
2023/10/27 01:48:04;;;;;;;39.13;15.80;;;;;;;;;;6081429;23;20194;-91
2023/10/27 01:51:10;;;;;;;19.83;8.93;;;;;;;;;;6082560;23;20170;-92
2023/10/27 01:54:16;;;;;;;15.57;8.57;;;;;;;;;;6081809;23;20174;-94
2023/10/27 01:57:22;;;;;;;14.88;8.35;;;;;;;;;;6079750;23;20174;-91
2023/10/27 02:00:27;;;;;;;16.60;8.43;;;;;;;;;;6081561;23;20187;-92
2023/10/27 02:03:33;;;;;;;14.35;7.80;;;;;;;;;;6080263;23;20166;-94
2023/10/27 02:06:38;;;;;;;13.20;7.38;;;;;;;;;;6081880;23;20240;-91
2023/10/27 02:09:45;;;;;;;14.27;7.68;;;;;;;;;;6081617;23;20661;-92
2023/10/27 02:12:50;;;;;;;11.05;6.65;;;;;;;;;;6081818;23;20170;-90
2023/10/27 02:15:56;;;;;;;12.00;7.35;;;;;;;;;;6079692;23;20175;-90
2023/10/27 02:19:01;;;;;;;11.85;6.88;;;;;;;;;;6080930;23;20182;-91
2023/10/27 02:22:06;;;;;;;15.65;7.28;;;;;;;;;;6082820;23;20170;-90
2023/10/27 02:25:13;;;;;;;13.43;7.55;;;;;;;;;;6082186;23;20829;-91
2023/10/27 02:28:19;;;;;;;13.25;7.47;;;;;;;;;;6084066;23;20198;-94
2023/10/27 02:31:24;;;;;;;19.20;7.63;;;;;;;;;;6084024;23;20318;-92
2023/10/27 02:34:29;;;;;;;14.30;8.07;;;;;;;;;;6083125;23;20222;-90
2023/10/27 02:37:35;;;;;;;15.18;8.25;;;;;;;;;;6083084;23;20166;-90
2023/10/27 02:40:41;;;;;;;15.10;8.15;;;;;;;;;;6084945;23;20170;-93
2023/10/27 02:43:47;;;;;;;13.73;7.10;;;;;;;;;;6083232;23;20150;-93
2023/10/27 02:46:52;;;;;;;15.30;7.30;;;;;;;;;;6083818;23;20167;-93
2023/10/27 02:49:57;;;;;;;17.40;8.13;;;;;;;;;;6081532;23;20247;-93
2023/10/27 02:53:03;;;;;;;13.93;7.72;;;;;;;;;;6083054;23;20155;-92
2023/10/27 02:56:10;;;;;;;16.52;7.80;;;;;;;;;;6081757;23;20170;-91
2023/10/27 02:59:15;;;;;;;16.63;8.15;;;;;;;;;;6086430;23;20174;-93
2023/10/27 03:02:20;;;;;;;14.27;7.43;;;;;;;;;;6084623;23;20220;-92
2023/10/27 03:05:25;;;;;;;13.85;7.90;;;;;;;;;;6099713;23;20196;-91
2023/10/27 03:08:31;;;;;;;13.10;7.28;;;;;;;;;;6083015;23;20250;-93
2023/10/27 03:11:38;;;;;;;15.27;8.07;;;;;;;;;;6082344;23;20177;-91
2023/10/27 03:14:43;;;;;;;16.15;8.30;;;;;;;;;;6084874;23;20283;-91
2023/10/27 03:17:48;;;;;;;14.07;7.50;;;;;;;;;;6084454;23;20250;-91
2023/10/27 03:20:57;;;;;;;14.02;7.10;;;;;;;;;;6083281;23;20200;-92
2023/10/27 03:24:06;;;;;;;14.75;7.20;;;;;;;;;;6085042;23;20161;-91
2023/10/27 03:27:15;;;;;;;11.88;7.28;;;;;;;;;;6089989;23;20192;-92
2023/10/27 03:30:21;;;;;;;13.30;6.95;;;;;;;;;;6084384;23;20299;-93
2023/10/27 03:33:27;;;;;;;10.88;5.78;;;;;;;;;;6083281;23;20181;-91
2023/10/27 03:36:32;;;;;;;11.43;5.78;;;;;;;;;;6083766;23;20225;-92
2023/10/27 03:39:37;;;;;;;11.15;5.97;;;;;;;;;;6082268;23;20625;-90
2023/10/27 03:42:44;;;;;;;10.10;6.13;;;;;;;;;;6084645;23;20158;-91
2023/10/27 03:45:52;;;;;;;11.43;7.03;;;;;;;;;;6082182;23;20653;-92
2023/10/27 03:48:58;;;;;;;12.32;6.88;;;;;;;;;;6082414;23;20197;-91
2023/10/27 03:52:03;;;;;;;13.57;7.95;;;;;;;;;;6084053;23;20159;-91
2023/10/27 03:55:11;;;;;;;12.05;7.22;;;;;;;;;;6101834;23;20175;-91
2023/10/27 03:58:18;;;;;;;17.48;7.70;;;;;;;;;;6084633;23;20174;-93
2023/10/27 04:01:27;;;;;;;11.70;6.55;;;;;;;;;;6087638;23;20171;-91
2023/10/27 04:04:33;;;;;;;12.48;6.45;;;;;;;;;;6083463;23;20174;-92
2023/10/27 04:07:38;;;;;;;11.10;5.70;;;;;;;;;;6081851;23;20258;-90
2023/10/27 04:10:44;;;;;;;11.70;5.88;;;;;;;;;;6081218;23;20159;-90
2023/10/27 04:13:50;;;;;;;9.68;5.72;;;;;;;;;;6081971;23;20170;-91
2023/10/27 04:16:55;;;;;;;11.40;5.82;;;;;;;;;;6082999;23;20171;-91
2023/10/27 04:20:03;;;;;;;15.68;6.55;;;;;;;;;;6083228;23;20202;-90
2023/10/27 04:23:09;;;;;;;12.15;6.55;;;;;;;;;;6088046;23;20243;-90
2023/10/27 04:26:15;;;;;;;10.82;5.88;;;;;;;;;;6084565;23;20215;-92
2023/10/27 04:29:22;;;;;;;10.95;5.72;;;;;;;;;;6087085;23;20213;-92
2023/10/27 04:32:29;;;;;;;0.45;0.45;;;;;;;;;;6102436;23;20222;-92
2023/10/27 04:35:35;;;;;;;2.13;0.55;;;;;;;;;;6087689;23;20203;-90
2023/10/27 04:38:40;;;;;;;0.40;0.40;;;;;;;;;;6088936;23;20182;-94
2023/10/27 04:41:45;;;;;;;0.60;0.60;;;;;;;;;;6087421;23;20496;-92
2023/10/27 04:44:56;;;;;;;0.70;0.70;;;;;;;;;;6103375;23;20169;-92
2023/10/27 04:48:02;;;;;;;1.08;1.00;;;;;;;;;;6103169;23;20258;-91
2023/10/27 04:51:09;;;;;;;0.30;0.30;;;;;;;;;;6086137;23;20223;-91
2023/10/27 04:54:14;;;;;;;0.82;0.82;;;;;;;;;;6085384;23;20176;-93
2023/10/27 04:57:19;;;;;;;0.30;0.30;;;;;;;;;;6088273;23;20170;-93
2023/10/27 05:00:30;;;;;;;0.43;0.43;;;;;;;;;;6086162;23;20349;-92
2023/10/27 05:03:36;;;;;;;0.47;0.47;;;;;;;;;;6086421;23;20170;-93
2023/10/27 05:06:42;;;;;;;0.50;0.50;;;;;;;;;;6087055;23;20182;-94
2023/10/27 05:09:47;;;;;;;0.32;0.32;;;;;;;;;;6085317;23;20223;-91
2023/10/27 05:12:52;;;;;;;1.00;0.98;;;;;;;;;;6085464;23;20174;-93
2023/10/27 05:16:07;;;;;;;0.55;0.50;;;;;;;;;;6085400;23;20169;-90
2023/10/27 05:19:14;;;;;;;0.73;0.50;;;;;;;;;;6090030;23;20198;-89
2023/10/27 05:22:28;;;;;;;3.00;1.05;;;;;;;;;;6089226;23;20187;-91
2023/10/27 05:25:34;;;;;;;0.30;0.30;;;;;;;;;;6088179;23;20171;-95
2023/10/27 05:28:39;;;;;;;0.70;0.50;;;;;;;;;;6103894;23;20158;-92
2023/10/27 05:31:46;;;;;;;1.45;0.60;;;;;;;;;;6086740;23;20166;-90
2023/10/27 05:34:52;;;;;;;0.52;0.52;;;;;;;;;;6085110;23;20171;-89
2023/10/27 05:37:57;;;;;;;0.40;0.40;;;;;;;;;;6087785;23;20175;-91
2023/10/27 06:45:59;;;;;;;1.08;0.98;;;;;;;;;;6071539;23;20243;-92
2023/10/27 06:49:05;;;;;;;0.73;0.50;;;;;;;;;;6086139;23;20170;-90
2023/10/27 06:52:10;;;;;;;1.65;0.95;;;;;;;;;;6086085;23;20166;-91
2023/10/27 06:55:17;;;;;;;0.30;0.30;;;;;;;;;;6087705;23;20158;-91
2023/10/27 06:58:22;;;;;;;0.80;0.77;;;;;;;;;;6104382;23;20150;-90
2023/10/27 07:01:30;;;;;;;0.47;0.47;;;;;;;;;;6103850;23;20627;-90
2023/10/27 07:04:36;;;;;;;0.50;0.50;;;;;;;;;;6086736;23;20167;-92
2023/10/27 07:07:42;;;;;;;0.40;0.40;;;;;;;;;;6086282;23;20279;-91
2023/10/27 07:10:54;;;;;;;0.60;0.60;;;;;;;;;;6103138;23;20198;-91
2023/10/27 07:13:59;;;;;;;0.32;0.32;;;;;;;;;;6087058;23;20174;-91
2023/10/27 07:17:08;;;;;;;0.63;0.57;;;;;;;;;;6084462;23;20170;-89
2023/10/27 07:20:14;;;;;;;1.40;0.47;;;;;;;;;;6085249;23;20174;-90
2023/10/27 07:23:19;;;;;;;0.52;0.40;;;;;;;;;;6086773;23;20167;-90
2023/10/27 07:26:25;;;;;;;0.52;0.52;;;;;;;;;;6089050;23;20150;-90
2023/10/27 07:29:31;;;;;;;1.00;0.60;;;;;;;;;;6085463;23;20255;-91
2023/10/27 07:32:46;;;;;;;0.65;0.65;;;;;;;;;;6085449;23;20505;-90
2023/10/27 07:36:17;;;;;;;0.30;0.30;;;;;;;;;;6088773;23;20171;-89
2023/10/27 07:39:22;;;;;;;0.57;0.57;;;;;;;;;;6085674;23;20211;-91
2023/10/27 07:42:28;;;;;;;0.63;0.57;;;;;;;;;;6085752;23;20175;-90
2023/10/27 07:45:34;;;;;;;0.38;0.38;;;;;;;;;;6084533;23;20197;-91
2023/10/27 09:40:46;;;;;;;0.63;0.52;;;;;;;;;;6019806;23;20559;-91
2023/10/27 09:43:54;;;;;;;0.73;0.73;;;;;;;;;;6087110;23;20243;-92
2023/10/27 09:47:00;;;;;;;6.60;1.20;;;;;;;;;;6085018;23;20221;-90
2023/10/27 09:50:08;;;;;;;0.73;0.73;;;;;;;;;;6106969;23;20251;-91
2023/10/27 09:53:13;;;;;;;0.30;0.30;;;;;;;;;;6102649;23;20171;-92
2023/10/27 09:56:20;;;;;;;0.30;0.30;;;;;;;;;;6086028;23;20232;-92
2023/10/27 10:02:48;;;;;;;0.47;0.47;;;;;;;;;;6087703;23;20207;-90
2023/10/27 10:06:13;;;;;;;3.15;0.73;;;;;;;;;;6090083;23;20184;-90
2023/10/27 10:09:26;;;;;;;0.65;0.65;;;;;;;;;;6085031;23;20305;-90
2023/10/27 10:12:59;;;;;;;0.30;0.30;;;;;;;;;;6084226;23;20268;-91
2023/10/27 10:16:06;;;;;;;0.55;0.55;;;;;;;;;;6086743;23;20196;-89
2023/10/27 10:19:11;;;;;;;0.30;0.30;;;;;;;;;;6088791;23;20154;-90
2023/10/27 10:22:32;;;;;;;1.85;0.45;;;;;;;;;;6086167;23;20182;-91
2023/10/27 10:25:38;;;;;;;0.40;0.40;;;;;;;;;;6085470;23;20175;-91
2023/10/27 10:28:46;;;;;;;0.57;0.57;;;;;;;;;;6085789;23;20169;-91
2023/10/27 10:31:53;;;;;;;1.27;1.10;;;;;;;;;;6085281;23;20245;-89
2023/10/27 10:35:26;;;;;;;0.30;0.30;;;;;;;;;;6086677;23;20458;-93
2023/10/27 10:38:38;;;;;;;0.38;0.38;;;;;;;;;;6049907;23;20193;-91
2023/10/27 10:42:03;;;;;;;0.30;0.30;;;;;;;;;;6086028;23;20230;-90
2023/10/27 10:45:12;;;;;;;0.35;0.35;;;;;;;;;;6084731;23;20181;-92
2023/10/27 10:48:18;;;;;;;0.30;0.30;;;;;;;;;;6085313;23;20171;-91
2023/10/27 10:51:30;;;;;;;0.45;0.40;;;;;;;;;;6084555;23;20199;-91
2023/10/27 10:54:37;;;;;;;0.30;0.30;;;;;;;;;;6101915;23;20208;-90
2023/10/27 10:57:43;;;;;;;1.08;0.65;;;;;;;;;;6083888;23;20174;-90
2023/10/27 11:04:15;;;;;;;0.30;0.30;;;;;;;;;;6086897;23;20177;-88
2023/10/27 11:07:20;;;;;;;0.20;0.20;;;;;;;;;;6103326;23;20172;-89
2023/10/27 11:10:26;;;;;;;0.20;0.20;;;;;;;;;;6103509;23;20202;-90
2023/10/27 11:17:00;;;;;;;0.35;0.32;;;;;;;;;;6087514;23;20182;-92
2023/10/27 11:20:07;;;;;;;0.20;0.20;;;;;;;;;;6088869;23;20159;-93
2023/10/27 11:23:14;;;;;;;0.30;0.30;;;;;;;;;;6102950;23;20171;-91
2023/10/27 11:26:21;;;;;;;2.15;0.90;;;;;;;;;;6101463;23;20170;-90
2023/10/27 11:29:27;;;;;;;0.30;0.30;;;;;;;;;;6086245;23;20162;-92
2023/10/27 11:32:48;;;;;;;0.40;0.40;;;;;;;;;;6085485;23;20186;-91
2023/10/27 11:35:59;;;;;;;0.63;0.30;;;;;;;;;;6104381;23;20219;-90
2023/10/27 11:39:18;;;;;;;0.35;0.35;;;;;;;;;;6084579;23;20167;-90
2023/10/27 11:45:55;;;;;;;0.38;0.38;;;;;;;;;;6090869;23;20175;-89
2023/10/27 11:56:00;;;;;;;0.20;0.20;;;;;;;;;;6087853;23;20190;-90
2023/10/27 11:59:05;;;;;;;0.30;0.30;;;;;;;;;;6083291;23;20610;-91
2023/10/27 12:02:13;;;;;;;0.20;0.20;;;;;;;;;;6085927;23;20154;-90
2023/10/27 12:05:19;;;;;;;0.47;0.47;;;;;;;;;;6083242;23;20155;-92
2023/10/27 12:08:23;;;;;;;0.40;0.40;;;;;;;;;;6083476;23;20170;-92
2023/10/27 12:11:33;;;;;;;0.60;0.60;;;;;;;;;;6082923;23;20198;-90
2023/10/27 12:14:38;;;;;;;0.32;0.32;;;;;;;;;;6083046;23;20170;-92
2023/10/27 12:17:44;;;;;;;0.40;0.40;;;;;;;;;;6084290;23;20232;-91
2023/10/27 12:20:50;;;;;;;0.70;0.50;;;;;;;;;;6081781;23;20627;-91
2023/10/27 12:23:56;;;;;;;0.30;0.30;;;;;;;;;;6083147;23;20163;-92
2023/10/27 12:27:09;;;;;;;0.30;0.30;;;;;;;;;;6081877;23;20186;-91
2023/10/27 12:30:15;;;;;;;0.20;0.20;;;;;;;;;;6082793;23;20246;-91
2023/10/27 12:33:21;;;;;;;0.55;0.55;;;;;;;;;;6084990;23;20174;-89
2023/10/27 12:36:26;;;;;;;0.57;0.57;;;;;;;;;;6083484;23;20170;-91
2023/10/27 12:39:32;;;;;;;0.30;0.30;;;;;;;;;;6082068;23;20227;-91
2023/10/27 12:42:42;;;;;;;0.22;0.22;;;;;;;;;;6082755;23;20178;-91
2023/10/27 12:45:48;;;;;;;0.55;0.50;;;;;;;;;;6083511;23;20167;-91
2023/10/27 12:48:53;;;;;;;0.30;0.30;;;;;;;;;;6085570;23;20250;-91
2023/10/27 12:51:59;;;;;;;0.20;0.20;;;;;;;;;;6085877;23;20195;-89
2023/10/27 12:55:05;;;;;;;2.70;0.52;;;;;;;;;;6084934;23;20214;-92
2023/10/27 12:58:20;;;;;;;0.30;0.30;;;;;;;;;;6086666;23;20170;-90
2023/10/27 13:01:26;;;;;;;0.20;0.20;;;;;;;;;;6087524;23;20170;-90
2023/10/27 13:04:31;;;;;;;0.30;0.30;;;;;;;;;;6103361;23;20182;-92
2023/10/27 13:07:37;;;;;;;0.28;0.28;;;;;;;;;;6103845;23;20278;-91
2023/10/27 13:10:43;;;;;;;0.40;0.40;;;;;;;;;;6084540;23;20198;-90
2023/10/27 13:13:53;;;;;;;0.30;0.30;;;;;;;;;;6086520;23;20171;-92
2023/10/27 13:16:58;;;;;;;0.30;0.30;;;;;;;;;;6089803;23;20167;-90
2023/10/27 13:20:03;;;;;;;0.57;0.57;;;;;;;;;;6087429;23;20187;-92
2023/10/27 13:23:11;;;;;;;2.35;0.52;;;;;;;;;;6104558;23;20170;-92
2023/10/27 13:26:18;;;;;;;0.20;0.20;;;;;;;;;;6085894;23;20175;-91
2023/10/27 13:32:47;;;;;;;0.20;0.20;;;;;;;;;;6085930;23;20170;-90
2023/10/27 13:36:00;;;;;;;0.28;0.28;;;;;;;;;;6088117;23;20174;-92
2023/10/27 13:39:06;;;;;;;0.77;0.77;;;;;;;;;;6086795;23;20198;-89
2023/10/27 13:45:33;;;;;;;0.20;0.20;;;;;;;;;;6088692;23;20505;-89
2023/10/27 13:48:38;;;;;;;0.52;0.52;;;;;;;;;;6089011;23;20184;-90
2023/10/27 13:51:51;;;;;;;0.20;0.20;;;;;;;;;;6089000;23;20678;-92
2023/10/27 13:58:24;;;;;;;1.35;0.73;;;;;;;;;;6091101;23;20192;-90
2023/10/27 15:33:15;;;;;;;0.47;0.47;;;;;;;;;;6068648;23;20214;-92
2023/10/27 15:36:21;;;;;;;2.92;0.88;;;;;;;;;;6090101;23;20226;-91
2023/10/27 15:42:47;;;;;;;0.47;0.47;;;;;;;;;;6087257;23;20175;-92
2023/10/27 15:46:00;;;;;;;0.50;0.50;;;;;;;;;;6102872;23;20631;-91
2023/10/27 15:49:09;;;;;;;0.35;0.35;;;;;;;;;;6086663;23;20218;-90
2023/10/27 15:52:17;;;;;;;0.30;0.30;;;;;;;;;;6085030;23;20206;-90
2023/10/27 15:55:24;;;;;;;0.40;0.40;;;;;;;;;;6083819;23;20594;-91
2023/10/27 15:58:30;;;;;;;0.40;0.40;;;;;;;;;;6083572;23;20336;-91
2023/10/27 16:01:37;;;;;;;0.65;0.65;;;;;;;;;;6085454;23;20208;-90
2023/10/27 16:04:43;;;;;;;0.85;0.60;;;;;;;;;;6102893;23;20191;-92
2023/10/27 16:07:48;;;;;;;0.50;0.43;;;;;;;;;;6083470;23;20223;-93
2023/10/27 16:10:56;;;;;;;2.90;1.45;;;;;;;;;;6082721;23;20198;-89
2023/10/27 16:14:02;;;;;;;0.55;0.55;;;;;;;;;;6082725;23;20731;-89
2023/10/27 16:17:13;;;;;;;0.30;0.30;;;;;;;;;;6085871;23;20169;-92
2023/10/27 16:20:21;;;;;;;0.70;0.70;;;;;;;;;;6084461;23;20165;-91
2023/10/27 16:23:29;;;;;;;0.50;0.50;;;;;;;;;;6098066;23;20223;-92
2023/10/27 16:26:34;;;;;;;0.40;0.40;;;;;;;;;;6086764;23;20167;-92
2023/10/27 16:29:40;;;;;;;1.70;0.95;;;;;;;;;;6104080;23;20166;-91
2023/10/27 16:32:48;;;;;;;0.70;0.70;;;;;;;;;;6087730;23;20258;-91
2023/10/27 16:35:56;;;;;;;0.55;0.55;;;;;;;;;;6088124;23;20627;-92
2023/10/27 16:39:02;;;;;;;0.43;0.43;;;;;;;;;;6088969;23;20174;-91
2023/10/27 16:42:09;;;;;;;0.60;0.60;;;;;;;;;;6086761;23;20240;-88
2023/10/27 16:45:16;;;;;;;1.95;0.60;;;;;;;;;;6102003;23;20199;-91
2023/10/27 16:48:27;;;;;;;0.52;0.52;;;;;;;;;;6086291;23;20178;-92
2023/10/27 16:51:36;;;;;;;0.57;0.57;;;;;;;;;;6087173;23;20668;-92
2023/10/27 16:58:03;;;;;;;1.40;1.30;;;;;;;;;;6087864;23;20229;-90
2023/10/27 17:01:13;;;;;;;2.58;1.67;;;;;;;;;;6088278;23;20204;-91
2023/10/27 17:04:18;;;;;;;0.60;0.60;;;;;;;;;;6088174;23;20166;-91
2023/10/27 17:07:26;;;;;;;0.60;0.60;;;;;;;;;;6086933;23;20171;-92
2023/10/27 17:13:53;;;;;;;1.17;0.98;;;;;;;;;;6086180;23;20171;-91
2023/10/27 17:16:59;;;;;;;6.63;2.38;;;;;;;;;;6086570;23;20173;-92
2023/10/27 17:20:06;;;;;;;0.52;0.52;;;;;;;;;;6088885;23;20214;-92
2023/10/27 17:23:14;;;;;;;1.45;1.27;;;;;;;;;;6087187;23;20223;-91
2023/10/27 17:26:20;;;;;;;4.82;1.92;;;;;;;;;;6087643;23;20243;-91
2023/10/27 17:29:26;;;;;;;0.40;0.40;;;;;;;;;;6086390;23;20182;-93
2023/10/27 17:32:34;;;;;;;2.03;1.83;;;;;;;;;;6102777;23;20205;-91
2023/10/27 17:35:44;;;;;;;1.55;1.15;;;;;;;;;;6088370;23;20179;-91
2023/10/27 17:38:53;;;;;;;1.75;1.65;;;;;;;;;;6092853;23;20155;-93
2023/10/27 17:42:04;;;;;;;2.13;1.95;;;;;;;;;;6090782;23;20170;-91
2023/10/27 17:45:11;;;;;;;4.00;0.95;;;;;;;;;;6090171;23;20174;-92
2023/10/27 17:48:20;;;;;;;1.70;1.50;;;;;;;;;;6092332;23;20154;-91
2023/10/27 17:55:00;;;;;;;16.08;1.75;;;;;;;;;;6090182;23;20186;-90
2023/10/27 17:58:06;;;;;;;0.52;0.52;;;;;;;;;;6088573;23;20183;-93
2023/10/27 18:01:12;;;;;;;2.33;1.65;;;;;;;;;;6086764;23;20166;-90
2023/10/27 18:07:37;;;;;;;0.93;0.93;;;;;;;;;;6086202;23;20291;-94
2023/10/27 18:10:45;;;;;;;1.35;1.25;;;;;;;;;;6084613;23;20173;-90
2023/10/27 18:13:50;;;;;;;0.50;0.50;;;;;;;;;;6082936;23;20302;-93
2023/10/27 18:16:56;;;;;;;0.50;0.50;;;;;;;;;;6085430;23;20166;-91
2023/10/27 18:20:05;;;;;;;0.68;0.65;;;;;;;;;;6085774;23;20170;-92
2023/10/27 18:23:11;;;;;;;1.65;1.40;;;;;;;;;;6085758;23;20247;-90
2023/10/27 18:26:20;;;;;;;3.30;1.10;;;;;;;;;;6083348;23;20386;-90
2023/10/27 18:32:44;;;;;;;4.57;2.15;;;;;;;;;;6086614;23;20198;-92
2023/10/27 18:35:50;;;;;;;1.00;0.95;;;;;;;;;;6087736;23;20166;-91
2023/10/27 18:38:56;;;;;;;1.15;0.77;;;;;;;;;;6086661;23;20187;-91
2023/10/27 18:42:04;;;;;;;1.15;1.02;;;;;;;;;;6087244;23;20162;-92
2023/10/27 18:45:13;;;;;;;4.20;2.30;;;;;;;;;;6087253;23;20179;-93
2023/10/27 18:48:22;;;;;;;1.27;1.15;;;;;;;;;;6104435;23;20218;-92
2023/10/27 18:51:28;;;;;;;9.63;1.15;;;;;;;;;;6088680;23;20186;-92
2023/10/27 18:54:34;;;;;;;2.83;1.42;;;;;;;;;;6087663;23;20166;-91
2023/10/27 19:01:36;;;;;;;1.00;0.85;;;;;;;;;;6092409;23;20209;-93
2023/10/27 19:04:53;;;;;;;0.88;0.88;;;;;;;;;;6092049;23;20265;-91
2023/10/27 19:08:03;;;;;;;0.45;0.45;;;;;;;;;;6092404;23;20178;-93
2023/10/27 22:24:20;;;;;;;0.60;0.60;;;;;;;;;;6041822;23;20191;-90
2023/10/27 22:27:26;;;;;;;0.75;0.65;;;;;;;;;;6083078;23;20205;-89
2023/10/27 22:30:31;;;;;;;0.75;0.75;;;;;;;;;;6088008;23;20231;-90
2023/10/27 22:33:36;;;;;;;0.55;0.55;;;;;;;;;;6078786;23;20210;-92
2023/10/27 22:36:41;;;;;;;0.47;0.47;;;;;;;;;;6085582;23;20219;-91
2023/10/27 22:39:48;;;;;;;0.30;0.30;;;;;;;;;;6085566;23;20222;-92
2023/10/27 22:42:54;;;;;;;0.70;0.70;;;;;;;;;;6084559;23;20170;-89
2023/10/27 22:46:03;;;;;;;0.28;0.28;;;;;;;;;;6085435;23;20171;-92
2023/10/27 22:49:08;;;;;;;1.00;0.75;;;;;;;;;;6084643;23;20502;-91
2023/10/27 22:52:14;;;;;;;0.73;0.73;;;;;;;;;;6084758;23;20515;-91
2023/10/27 22:55:22;;;;;;;0.75;0.60;;;;;;;;;;6100509;23;20211;-91
2023/10/27 22:58:30;;;;;;;0.68;0.68;;;;;;;;;;6084460;23;20162;-90
2023/10/27 23:01:36;;;;;;;3.80;0.80;;;;;;;;;;6083040;23;20627;-91
2023/10/27 23:04:42;;;;;;;0.40;0.40;;;;;;;;;;6081683;23;20179;-89
2023/10/27 23:07:47;;;;;;;0.68;0.68;;;;;;;;;;6081615;23;20502;-91
2023/10/27 23:10:54;;;;;;;0.30;0.30;;;;;;;;;;6082077;23;20178;-92
2023/10/27 23:14:00;;;;;;;0.40;0.40;;;;;;;;;;6084094;23;20211;-91
2023/10/27 23:17:05;;;;;;;1.35;0.98;;;;;;;;;;6084800;23;20192;-90
2023/10/27 23:20:12;;;;;;;1.10;0.77;;;;;;;;;;6083877;23;20260;-91
2023/10/27 23:23:17;;;;;;;1.10;1.00;;;;;;;;;;6084924;23;20225;-91
2023/10/27 23:26:24;;;;;;;0.50;0.50;;;;;;;;;;6084326;23;20198;-90
2023/10/27 23:29:30;;;;;;;1.90;0.55;;;;;;;;;;6083151;23;20182;-92
2023/10/27 23:32:36;;;;;;;0.60;0.60;;;;;;;;;;6084924;23;20287;-92
2023/10/27 23:35:43;;;;;;;0.77;0.70;;;;;;;;;;6081898;23;20243;-91
2023/10/27 23:38:48;;;;;;;3.65;1.08;;;;;;;;;;6097397;23;20171;-90
2023/10/27 23:41:55;;;;;;;0.68;0.68;;;;;;;;;;6083416;23;20171;-90
2023/10/27 23:44:59;;;;;;;0.40;0.40;;;;;;;;;;6083074;23;20188;-91
2023/10/27 23:48:06;;;;;;;0.55;0.55;;;;;;;;;;6082388;23;20171;-90
2023/10/27 23:51:12;;;;;;;0.57;0.57;;;;;;;;;;6082950;23;20200;-91
2023/10/27 23:54:17;;;;;;;42.00;2.55;;;;;;;;;;6082162;23;20174;-90
2023/10/27 23:57:24;;;;;;;1.38;0.93;;;;;;;;;;6082160;23;20170;-90
